Time;durP1;ratioP1;P1;durP2;ratioP2;P2;SDS_P1;SDS_P2;PMS_P1;PMS_P2;Temp;Humidity;BMP_temperature;BMP_pressure;BME280_temperature;BME280_humidity;BME280_pressure;Samples;Min_cycle;Max_cycle;Signal;HPM_P1;HPM_P2
2022/07/27 05:33:50;;;;;;;10.93;7.57;;;;;;;;;;4391599;32;20174;-65
2022/07/27 05:36:17;;;;;;;9.77;6.68;;;;;;;;;;4378953;32;20561;-65
2022/07/27 05:38:44;;;;;;;7.35;5.60;;;;;;;;;;4391355;32;20094;-65
2022/07/27 05:41:10;;;;;;;11.55;6.50;;;;;;;;;;4390901;32;20456;-64
2022/07/27 05:43:37;;;;;;;9.95;6.47;;;;;;;;;;4391073;32;20107;-65
2022/07/27 05:46:04;;;;;;;7.47;5.43;;;;;;;;;;4378624;32;20093;-65
2022/07/27 05:48:30;;;;;;;8.68;7.37;;;;;;;;;;4378601;32;20145;-64
2022/07/27 05:50:57;;;;;;;10.73;6.00;;;;;;;;;;4378385;32;20077;-65
2022/07/27 05:53:24;;;;;;;8.90;6.72;;;;;;;;;;4392437;32;20069;-64
2022/07/27 05:55:51;;;;;;;8.38;6.05;;;;;;;;;;4391200;32;20089;-65
2022/07/27 05:58:17;;;;;;;11.50;6.57;;;;;;;;;;4392346;32;20168;-65
2022/07/27 06:00:44;;;;;;;10.20;6.75;;;;;;;;;;4366369;32;20151;-64
2022/07/27 06:03:11;;;;;;;9.45;6.68;;;;;;;;;;4390864;32;20069;-64
2022/07/27 06:38:18;;;;;;;7.78;4.82;;;;;;;;;;4391504;32;20186;-65
2022/07/27 06:57:55;;;;;;;6.70;5.20;;;;;;;;;;4391767;32;20077;-65
2022/07/27 07:14:50;;;;;;;7.18;4.10;;;;;;;;;;4391781;32;20087;-64
2022/07/27 07:17:38;;;;;;;7.30;5.18;;;;;;;;;;4389639;32;20092;-64
2022/07/27 07:24:06;;;;;;;6.35;5.12;;;;;;;;;;4392020;32;20085;-65
2022/07/27 07:33:56;;;;;;;7.60;4.60;;;;;;;;;;4391400;32;20069;-65
2022/07/27 09:08:13;;;;;;;8.25;4.60;;;;;;;;;;4391882;32;20174;-64
2022/07/27 09:10:58;;;;;;;6.15;4.87;;;;;;;;;;4366697;32;20081;-64
2022/07/27 09:13:44;;;;;;;8.43;5.50;;;;;;;;;;4392214;32;20092;-65
2022/07/27 09:23:54;;;;;;;6.28;4.47;;;;;;;;;;4393065;32;20170;-65
2022/07/27 09:26:23;;;;;;;5.78;4.50;;;;;;;;;;4375767;32;20122;-65
2022/07/27 09:29:06;;;;;;;6.00;4.40;;;;;;;;;;4352711;32;20457;-64
2022/07/27 09:31:44;;;;;;;4.78;3.85;;;;;;;;;;4350681;32;20565;-64
2022/07/27 09:34:11;;;;;;;6.10;4.20;;;;;;;;;;4363128;32;20150;-64
2022/07/27 09:36:57;;;;;;;6.37;3.95;;;;;;;;;;4364089;32;20078;-65
2022/07/27 09:39:26;;;;;;;8.20;5.40;;;;;;;;;;4352154;32;21002;-65
2022/07/27 09:42:00;;;;;;;6.95;4.57;;;;;;;;;;4351633;32;20261;-64
2022/07/27 09:44:35;;;;;;;7.43;4.80;;;;;;;;;;4339541;32;20152;-64
2022/07/27 09:47:19;;;;;;;9.03;5.37;;;;;;;;;;4339339;32;20092;-64
2022/07/27 09:49:46;;;;;;;6.78;5.53;;;;;;;;;;4351796;32;20090;-64
2022/07/27 09:52:24;;;;;;;7.43;5.70;;;;;;;;;;4363560;32;20075;-65
2022/07/27 09:54:51;;;;;;;10.15;6.37;;;;;;;;;;4352548;32;20078;-64
2022/07/27 09:57:20;;;;;;;9.55;6.40;;;;;;;;;;4367459;32;20058;-64
2022/07/27 09:59:47;;;;;;;10.10;6.62;;;;;;;;;;4391102;32;20074;-64
2022/07/27 10:02:14;;;;;;;7.75;5.22;;;;;;;;;;4392057;32;20538;-64
2022/07/27 10:04:41;;;;;;;9.10;6.43;;;;;;;;;;4391046;32;20178;-64
2022/07/27 10:07:07;;;;;;;9.45;6.60;;;;;;;;;;4378187;32;20074;-64
2022/07/27 10:09:34;;;;;;;10.48;6.53;;;;;;;;;;4390682;32;20093;-64
2022/07/27 10:12:03;;;;;;;8.30;6.43;;;;;;;;;;4390213;32;20174;-64
2022/07/27 10:14:29;;;;;;;6.85;5.57;;;;;;;;;;4392467;32;20120;-64
2022/07/27 10:16:56;;;;;;;6.70;5.47;;;;;;;;;;4390402;32;20161;-63
2022/07/27 10:19:46;;;;;;;7.43;5.68;;;;;;;;;;4365446;32;20444;-64
2022/07/27 10:22:13;;;;;;;7.22;5.53;;;;;;;;;;4390527;32;20170;-65
2022/07/27 10:24:40;;;;;;;8.02;6.10;;;;;;;;;;4390408;32;20093;-65
2022/07/27 10:27:27;;;;;;;7.37;5.05;;;;;;;;;;4390882;32;20070;-64
2022/07/27 10:29:55;;;;;;;6.68;5.25;;;;;;;;;;4390495;32;20531;-64
2022/07/27 10:32:31;;;;;;;7.87;5.32;;;;;;;;;;4390657;32;20531;-66
2022/07/27 10:34:59;;;;;;;8.32;5.72;;;;;;;;;;4391405;32;20522;-66
2022/07/27 10:37:29;;;;;;;9.10;5.45;;;;;;;;;;4390465;32;20069;-66
2022/07/27 10:42:45;;;;;;;6.78;4.43;;;;;;;;;;4390745;32;20066;-65
2022/07/27 10:45:13;;;;;;;11.88;5.93;;;;;;;;;;4390315;32;20070;-64
2022/07/27 10:47:52;;;;;;;7.03;5.00;;;;;;;;;;4390383;32;20075;-66
2022/07/27 10:50:22;;;;;;;7.68;5.00;;;;;;;;;;4377999;32;20092;-64
2022/07/27 10:53:01;;;;;;;6.53;4.62;;;;;;;;;;4390539;32;20507;-64
2022/07/27 10:55:35;;;;;;;6.90;5.30;;;;;;;;;;4390720;32;20084;-64
2022/07/27 10:58:17;;;;;;;9.43;5.35;;;;;;;;;;4377460;32;20155;-63
2022/07/27 11:00:49;;;;;;;7.00;4.72;;;;;;;;;;4378216;32;20077;-63
2022/07/27 11:03:27;;;;;;;7.78;4.75;;;;;;;;;;4391314;32;20532;-64
2022/07/27 11:06:09;;;;;;;7.57;4.75;;;;;;;;;;4391691;32;20600;-63
2022/07/27 11:08:41;;;;;;;6.07;4.57;;;;;;;;;;4389802;32;20188;-64
2022/07/27 11:11:09;;;;;;;7.80;5.10;;;;;;;;;;4390059;32;20090;-64
2022/07/27 11:13:37;;;;;;;7.05;4.75;;;;;;;;;;4364993;32;20082;-65
2022/07/27 11:16:06;;;;;;;7.35;4.62;;;;;;;;;;4390330;32;20057;-64
2022/07/27 11:18:40;;;;;;;7.05;4.80;;;;;;;;;;4390057;32;20185;-67
2022/07/27 11:21:27;;;;;;;6.57;4.40;;;;;;;;;;4389735;32;20199;-67
2022/07/27 11:23:57;;;;;;;7.68;4.97;;;;;;;;;;4390319;32;20570;-65
2022/07/27 11:26:25;;;;;;;5.80;4.12;;;;;;;;;;4377720;32;20078;-66
2022/07/27 11:28:52;;;;;;;6.57;4.57;;;;;;;;;;4389734;32;20089;-66
2022/07/27 11:31:19;;;;;;;5.90;4.30;;;;;;;;;;4377133;32;20108;-67
2022/07/27 11:33:56;;;;;;;8.40;4.97;;;;;;;;;;4376981;32;20464;-65
2022/07/27 11:36:34;;;;;;;6.00;4.40;;;;;;;;;;4390160;32;20165;-65
2022/07/27 11:39:02;;;;;;;6.55;4.72;;;;;;;;;;4377305;32;20162;-64
2022/07/27 11:41:30;;;;;;;7.55;4.90;;;;;;;;;;4389477;32;20077;-64
2022/07/27 11:44:16;;;;;;;6.37;4.65;;;;;;;;;;4390303;32;20090;-65
2022/07/27 11:46:44;;;;;;;7.33;5.00;;;;;;;;;;4377224;32;20085;-65
2022/07/27 11:49:13;;;;;;;6.05;4.20;;;;;;;;;;4390306;32;20069;-65
2022/07/27 11:51:42;;;;;;;7.12;4.85;;;;;;;;;;4377158;32;20066;-64
2022/07/27 11:54:11;;;;;;;6.60;5.18;;;;;;;;;;4389683;32;20096;-66
2022/07/27 11:56:42;;;;;;;5.75;4.30;;;;;;;;;;4389385;32;20515;-65
2022/07/27 11:59:11;;;;;;;5.70;4.55;;;;;;;;;;4365352;32;20088;-65
2022/07/27 12:01:44;;;;;;;8.48;5.00;;;;;;;;;;4389489;32;20158;-64
2022/07/27 12:04:17;;;;;;;6.87;4.70;;;;;;;;;;4390288;32;20055;-65
2022/07/27 12:07:06;;;;;;;5.95;4.97;;;;;;;;;;4376951;32;20632;-65
2022/07/27 12:09:35;;;;;;;6.85;5.00;;;;;;;;;;4388542;32;20451;-64
2022/07/27 12:12:15;;;;;;;8.00;5.03;;;;;;;;;;4389910;32;20078;-65
2022/07/27 12:14:49;;;;;;;7.50;4.87;;;;;;;;;;4364486;32;20513;-64
2022/07/27 12:17:28;;;;;;;8.18;5.32;;;;;;;;;;4389588;32;20517;-64
2022/07/27 12:19:56;;;;;;;7.12;5.35;;;;;;;;;;4389649;32;20098;-62
2022/07/27 12:22:39;;;;;;;6.57;5.05;;;;;;;;;;4389495;32;20059;-66
2022/07/27 12:25:17;;;;;;;8.73;5.57;;;;;;;;;;4389657;32;20096;-66
2022/07/27 12:28:05;;;;;;;7.32;5.25;;;;;;;;;;4376515;32;20068;-66
2022/07/27 12:30:48;;;;;;;6.80;5.32;;;;;;;;;;4389475;32;20189;-65
2022/07/27 12:33:38;;;;;;;10.18;5.60;;;;;;;;;;4389175;32;20078;-65
2022/07/27 12:36:06;;;;;;;9.55;6.05;;;;;;;;;;4391636;32;20082;-64
2022/07/27 12:38:49;;;;;;;7.60;6.10;;;;;;;;;;4392257;32;20065;-63
2022/07/27 12:41:36;;;;;;;6.95;5.12;;;;;;;;;;4392925;32;20190;-65
2022/07/27 12:44:15;;;;;;;7.32;5.00;;;;;;;;;;4392015;32;20144;-65
2022/07/27 12:46:52;;;;;;;7.28;5.40;;;;;;;;;;4392249;32;20086;-64
2022/07/27 12:49:33;;;;;;;6.80;5.10;;;;;;;;;;4392299;32;20073;-64
2022/07/27 12:52:07;;;;;;;10.68;5.72;;;;;;;;;;4392312;32;20146;-63
2022/07/27 12:54:34;;;;;;;9.18;5.43;;;;;;;;;;4391618;32;20086;-66
2022/07/27 12:57:01;;;;;;;7.00;5.47;;;;;;;;;;4377664;32;20058;-63
2022/07/27 12:59:28;;;;;;;8.82;5.55;;;;;;;;;;4391952;32;20507;-64
2022/07/27 13:01:55;;;;;;;7.30;5.22;;;;;;;;;;4379024;32;20081;-64
2022/07/27 13:04:22;;;;;;;8.50;5.80;;;;;;;;;;4391326;32;20085;-64
2022/07/27 13:06:49;;;;;;;7.07;5.20;;;;;;;;;;4391327;32;20525;-66
2022/07/27 13:09:16;;;;;;;7.05;4.90;;;;;;;;;;4391643;32;20599;-64
2022/07/27 13:11:42;;;;;;;8.02;4.75;;;;;;;;;;4379309;32;20084;-63
2022/07/27 13:14:10;;;;;;;6.30;4.85;;;;;;;;;;4366976;32;20086;-64
2022/07/27 13:16:36;;;;;;;8.45;5.45;;;;;;;;;;4379286;32;20510;-64
2022/07/27 13:19:03;;;;;;;7.28;5.18;;;;;;;;;;4366421;32;20082;-63
2022/07/27 13:21:30;;;;;;;6.40;5.00;;;;;;;;;;4378834;32;20114;-64
2022/07/27 13:23:57;;;;;;;10.13;5.43;;;;;;;;;;4366262;32;20151;-64
2022/07/27 13:26:24;;;;;;;7.00;5.18;;;;;;;;;;4366159;32;20092;-64
2022/07/27 13:28:51;;;;;;;6.80;5.35;;;;;;;;;;4366551;32;20169;-64
2022/07/27 13:31:19;;;;;;;6.90;4.82;;;;;;;;;;4386770;32;20167;-64
2022/07/27 13:33:45;;;;;;;5.45;4.50;;;;;;;;;;4391515;32;20141;-63
2022/07/27 13:36:12;;;;;;;6.78;5.10;;;;;;;;;;4378253;32;20086;-64
2022/07/27 13:38:39;;;;;;;6.55;4.80;;;;;;;;;;4378149;32;20206;-64
2022/07/27 13:41:07;;;;;;;6.50;4.78;;;;;;;;;;4391546;32;20081;-63
2022/07/27 13:43:33;;;;;;;8.15;5.75;;;;;;;;;;4390954;32;20149;-63
2022/07/27 13:46:02;;;;;;;6.28;4.87;;;;;;;;;;4378068;32;20081;-63
2022/07/27 13:48:29;;;;;;;9.45;5.30;;;;;;;;;;4376338;32;20180;-63
2022/07/27 13:50:55;;;;;;;5.97;4.80;;;;;;;;;;4390960;32;20170;-63
2022/07/27 13:53:22;;;;;;;7.57;4.53;;;;;;;;;;4396471;32;20114;-63
2022/07/27 13:55:49;;;;;;;7.03;4.78;;;;;;;;;;4369063;32;20491;-64
2022/07/27 13:58:16;;;;;;;6.15;4.55;;;;;;;;;;4369438;32;20105;-64
2022/07/27 14:00:43;;;;;;;6.55;5.10;;;;;;;;;;4378432;32;20164;-63
2022/07/27 14:03:10;;;;;;;8.68;5.57;;;;;;;;;;4378687;32;20074;-64
2022/07/27 14:05:37;;;;;;;8.98;5.07;;;;;;;;;;4365789;32;20066;-64
2022/07/27 14:08:04;;;;;;;8.13;4.85;;;;;;;;;;4365680;32;20166;-63
2022/07/27 14:10:31;;;;;;;8.27;4.80;;;;;;;;;;4378415;32;20519;-64
2022/07/27 14:13:02;;;;;;;8.27;5.00;;;;;;;;;;4388909;32;20496;-67
2022/07/27 14:15:29;;;;;;;8.00;5.10;;;;;;;;;;4378513;32;20089;-72
2022/07/27 14:17:56;;;;;;;6.55;4.97;;;;;;;;;;4365608;32;20084;-73
2022/07/27 14:20:23;;;;;;;6.35;4.72;;;;;;;;;;4353492;32;20104;-72
2022/07/27 14:22:53;;;;;;;7.78;4.53;;;;;;;;;;4365422;32;20156;-70
2022/07/27 14:25:20;;;;;;;6.93;4.93;;;;;;;;;;4365342;32;20085;-73
2022/07/27 14:27:46;;;;;;;7.00;4.95;;;;;;;;;;4363962;32;20088;-74
2022/07/27 14:30:14;;;;;;;8.07;5.35;;;;;;;;;;4349945;32;20085;-76
2022/07/27 14:32:40;;;;;;;6.30;4.90;;;;;;;;;;4363160;32;20516;-75
2022/07/27 14:35:08;;;;;;;7.22;5.28;;;;;;;;;;4350910;32;20086;-73
2022/07/27 14:37:35;;;;;;;7.12;5.20;;;;;;;;;;4362572;32;20580;-73
2022/07/27 14:40:02;;;;;;;6.28;5.37;;;;;;;;;;4375279;32;20074;-74
2022/07/27 14:42:29;;;;;;;8.00;4.45;;;;;;;;;;4350217;32;20457;-73
2022/07/27 14:44:56;;;;;;;8.85;5.80;;;;;;;;;;4362521;32;20082;-72
2022/07/27 14:47:23;;;;;;;7.12;4.97;;;;;;;;;;4362676;32;20085;-73
2022/07/27 14:49:50;;;;;;;11.00;5.15;;;;;;;;;;4350156;32;20102;-72
2022/07/27 14:52:17;;;;;;;10.90;6.03;;;;;;;;;;4375446;32;20082;-76
2022/07/27 14:54:46;;;;;;;11.02;5.22;;;;;;;;;;4363558;32;20100;-76
2022/07/27 14:57:13;;;;;;;10.07;6.10;;;;;;;;;;4390020;32;20089;-66
2022/07/27 14:59:41;;;;;;;8.98;5.78;;;;;;;;;;4389912;32;20055;-67
2022/07/27 15:02:08;;;;;;;8.32;5.97;;;;;;;;;;4377397;32;20074;-66
2022/07/27 15:04:35;;;;;;;7.35;5.43;;;;;;;;;;4377199;32;20516;-65
2022/07/27 15:07:02;;;;;;;8.50;5.50;;;;;;;;;;4380198;32;20097;-65
2022/07/27 15:09:29;;;;;;;7.15;5.22;;;;;;;;;;4377414;32;20116;-66
2022/07/27 15:11:57;;;;;;;7.37;5.22;;;;;;;;;;4365080;32;20174;-66
2022/07/27 15:14:24;;;;;;;7.75;5.25;;;;;;;;;;4389736;32;20101;-65
2022/07/27 15:16:51;;;;;;;10.90;5.47;;;;;;;;;;4377962;32;20157;-64
2022/07/27 15:19:18;;;;;;;9.10;5.80;;;;;;;;;;4377633;32;20093;-64
2022/07/27 15:21:48;;;;;;;11.68;5.90;;;;;;;;;;4376991;32;20161;-66
2022/07/27 15:24:15;;;;;;;11.38;6.20;;;;;;;;;;4377291;32;20486;-64
2022/07/27 15:26:42;;;;;;;13.38;6.72;;;;;;;;;;4377272;32;20163;-65
2022/07/27 15:29:09;;;;;;;9.02;5.78;;;;;;;;;;4377716;32;20075;-65
2022/07/27 15:31:36;;;;;;;8.05;5.95;;;;;;;;;;4377307;32;20145;-66
2022/07/27 15:34:04;;;;;;;9.50;6.57;;;;;;;;;;4364740;32;20093;-67
2022/07/27 15:36:31;;;;;;;13.88;7.15;;;;;;;;;;4389684;32;20074;-66
2022/07/27 15:38:57;;;;;;;13.90;7.10;;;;;;;;;;4376478;32;20154;-74
2022/07/27 15:41:24;;;;;;;15.13;7.00;;;;;;;;;;4388988;32;20174;-66
2022/07/27 15:43:52;;;;;;;11.43;6.43;;;;;;;;;;4362352;32;20174;-66
2022/07/27 15:46:19;;;;;;;9.63;5.97;;;;;;;;;;4387468;32;20582;-67
2022/07/27 15:48:45;;;;;;;8.88;5.95;;;;;;;;;;4375732;32;20093;-66
2022/07/27 15:51:12;;;;;;;11.10;6.55;;;;;;;;;;4388193;32;20536;-66
2022/07/27 15:53:39;;;;;;;8.77;6.32;;;;;;;;;;4375922;32;20125;-66
2022/07/27 15:56:06;;;;;;;10.13;6.12;;;;;;;;;;4388100;32;20499;-66
2022/07/27 15:58:32;;;;;;;8.25;6.35;;;;;;;;;;4376584;32;20097;-66
2022/07/27 16:00:59;;;;;;;8.18;6.62;;;;;;;;;;4391275;32;20070;-65
2022/07/27 16:03:26;;;;;;;8.80;6.28;;;;;;;;;;4390775;32;20078;-65
2022/07/27 16:05:53;;;;;;;7.90;6.28;;;;;;;;;;4376963;32;20078;-65
2022/07/27 16:08:20;;;;;;;8.77;6.30;;;;;;;;;;4376871;32;20077;-66
2022/07/27 16:10:48;;;;;;;8.27;7.05;;;;;;;;;;4393718;32;20093;-66
2022/07/27 16:13:14;;;;;;;7.75;6.70;;;;;;;;;;4392880;32;20084;-65
2022/07/27 16:18:27;;;;;;;10.10;6.43;;;;;;;;;;4381673;32;20093;-65
2022/07/27 16:20:54;;;;;;;9.25;6.85;;;;;;;;;;4379933;32;20514;-65
2022/07/27 16:23:21;;;;;;;9.18;6.70;;;;;;;;;;4380114;32;20090;-66
2022/07/27 16:25:55;;;;;;;8.88;7.35;;;;;;;;;;4367243;32;20070;-65
2022/07/27 16:28:22;;;;;;;10.52;7.05;;;;;;;;;;4367823;32;20078;-65
2022/07/27 16:30:49;;;;;;;9.93;6.80;;;;;;;;;;4392180;32;20089;-65
2022/07/27 16:33:16;;;;;;;8.50;6.12;;;;;;;;;;4391934;32;20507;-66
2022/07/27 16:35:43;;;;;;;9.35;6.82;;;;;;;;;;4379966;32;20085;-66
2022/07/27 16:38:10;;;;;;;10.43;6.62;;;;;;;;;;4391970;32;20517;-65
2022/07/27 16:40:37;;;;;;;10.55;6.95;;;;;;;;;;4379250;32;20085;-66
2022/07/27 16:43:04;;;;;;;11.50;6.28;;;;;;;;;;4367024;32;20089;-65
2022/07/27 16:45:31;;;;;;;8.18;6.00;;;;;;;;;;4392475;32;20074;-65
2022/07/27 16:47:58;;;;;;;9.10;6.47;;;;;;;;;;4379331;32;20081;-66
2022/07/27 16:50:24;;;;;;;11.60;6.62;;;;;;;;;;4379459;32;20114;-65
2022/07/27 16:52:52;;;;;;;10.77;6.45;;;;;;;;;;4379922;32;20066;-66
2022/07/27 16:55:18;;;;;;;8.82;6.20;;;;;;;;;;4392073;32;20062;-66
2022/07/27 16:57:45;;;;;;;9.43;6.12;;;;;;;;;;4379443;32;20073;-65
2022/07/27 17:00:12;;;;;;;9.13;6.22;;;;;;;;;;4393186;32;20074;-65
2022/07/27 17:02:39;;;;;;;8.85;6.70;;;;;;;;;;4393158;32;20524;-66
2022/07/27 17:05:08;;;;;;;10.07;6.70;;;;;;;;;;4379140;32;20082;-65
2022/07/27 17:07:35;;;;;;;12.90;7.60;;;;;;;;;;4393147;32;20069;-64
2022/07/27 17:10:02;;;;;;;13.68;6.85;;;;;;;;;;4392211;32;20097;-65
2022/07/27 17:12:30;;;;;;;8.57;6.03;;;;;;;;;;4366680;32;20593;-65
2022/07/27 17:14:57;;;;;;;8.52;6.55;;;;;;;;;;4391665;32;20141;-65
2022/07/27 17:17:24;;;;;;;11.63;6.75;;;;;;;;;;4366585;32;20097;-65
2022/07/27 17:19:51;;;;;;;10.88;6.25;;;;;;;;;;4393260;32;20076;-65
2022/07/27 17:22:17;;;;;;;10.10;7.00;;;;;;;;;;4392821;32;20089;-65
2022/07/27 17:24:44;;;;;;;11.27;6.18;;;;;;;;;;4391577;32;20112;-65
2022/07/27 17:27:11;;;;;;;7.55;5.93;;;;;;;;;;4378859;32;20082;-65
2022/07/27 17:29:39;;;;;;;8.50;5.90;;;;;;;;;;4379025;32;20605;-66
2022/07/27 17:32:06;;;;;;;8.48;6.03;;;;;;;;;;4391763;32;20066;-65
2022/07/27 17:34:35;;;;;;;7.70;5.85;;;;;;;;;;4391813;32;20496;-66
2022/07/27 17:37:02;;;;;;;9.30;6.70;;;;;;;;;;4391711;32;20093;-65
2022/07/27 17:39:28;;;;;;;10.02;6.47;;;;;;;;;;4391547;32;20133;-65
2022/07/27 17:41:55;;;;;;;9.32;6.12;;;;;;;;;;4378686;32;20515;-66
2022/07/27 17:44:22;;;;;;;9.43;6.82;;;;;;;;;;4378363;32;20094;-65
2022/07/27 17:46:49;;;;;;;9.43;6.03;;;;;;;;;;4391421;32;20066;-65
2022/07/27 17:49:16;;;;;;;7.62;5.75;;;;;;;;;;4391501;32;20069;-65
2022/07/27 17:51:43;;;;;;;9.15;6.70;;;;;;;;;;4378715;32;20093;-66
2022/07/27 17:54:10;;;;;;;8.52;6.35;;;;;;;;;;4378911;32;20074;-65
2022/07/27 17:56:36;;;;;;;10.35;6.93;;;;;;;;;;4391281;32;20081;-65
2022/07/27 17:59:03;;;;;;;9.15;7.18;;;;;;;;;;4390857;32;20065;-65
2022/07/27 18:01:30;;;;;;;9.88;6.68;;;;;;;;;;4378438;32;20182;-65
2022/07/27 18:03:56;;;;;;;11.50;7.07;;;;;;;;;;4392287;32;20504;-66
2022/07/27 18:06:23;;;;;;;10.27;7.20;;;;;;;;;;4378074;32;20526;-65
2022/07/27 18:08:50;;;;;;;9.70;6.53;;;;;;;;;;4365782;32;20099;-64
2022/07/27 18:11:18;;;;;;;10.80;7.65;;;;;;;;;;4390533;32;20077;-66
2022/07/27 18:13:45;;;;;;;12.13;7.07;;;;;;;;;;4378471;32;20073;-66
2022/07/27 18:16:12;;;;;;;10.57;7.25;;;;;;;;;;4377904;32;20082;-66
2022/07/27 18:18:40;;;;;;;11.77;7.25;;;;;;;;;;4392348;32;20069;-65
2022/07/27 18:21:07;;;;;;;11.02;7.18;;;;;;;;;;4378007;32;20074;-65
2022/07/27 18:23:34;;;;;;;9.90;6.75;;;;;;;;;;4391002;32;20085;-65
2022/07/27 18:26:01;;;;;;;9.30;6.90;;;;;;;;;;4377965;32;20526;-66
2022/07/27 18:28:29;;;;;;;10.65;6.87;;;;;;;;;;4390822;32;20116;-65
2022/07/27 18:30:56;;;;;;;10.07;7.40;;;;;;;;;;4390713;32;20069;-65
2022/07/27 18:33:24;;;;;;;9.23;6.80;;;;;;;;;;4365063;32;20514;-65
2022/07/27 18:35:52;;;;;;;10.90;6.45;;;;;;;;;;4378146;32;20179;-65
2022/07/27 18:38:19;;;;;;;8.52;6.25;;;;;;;;;;4390492;32;20154;-66
2022/07/27 18:40:47;;;;;;;9.00;5.80;;;;;;;;;;4392262;32;20547;-65
2022/07/27 18:43:15;;;;;;;8.00;5.53;;;;;;;;;;4383378;32;20139;-65
2022/07/27 18:45:42;;;;;;;9.05;6.20;;;;;;;;;;4377162;32;20132;-65
2022/07/27 18:48:09;;;;;;;8.38;5.62;;;;;;;;;;4370302;32;20148;-65
2022/07/27 18:50:37;;;;;;;9.75;6.30;;;;;;;;;;4382843;32;20154;-65
2022/07/27 18:53:04;;;;;;;8.60;5.53;;;;;;;;;;4392517;32;20078;-65
2022/07/27 18:55:31;;;;;;;10.45;5.90;;;;;;;;;;4390758;32;20085;-65
2022/07/27 18:57:58;;;;;;;8.95;5.80;;;;;;;;;;4390070;32;20594;-65
2022/07/27 19:00:26;;;;;;;10.70;5.50;;;;;;;;;;4390267;32;20058;-66
2022/07/27 19:02:54;;;;;;;10.30;5.72;;;;;;;;;;4377673;32;20085;-65
2022/07/27 19:05:23;;;;;;;8.85;5.55;;;;;;;;;;4377874;32;20085;-65
2022/07/27 19:07:54;;;;;;;11.12;6.03;;;;;;;;;;4365097;32;20129;-65
2022/07/27 19:10:22;;;;;;;9.52;5.90;;;;;;;;;;4390303;32;20174;-65
2022/07/27 19:12:48;;;;;;;6.50;5.45;;;;;;;;;;4365476;32;20164;-65
2022/07/27 19:15:15;;;;;;;7.97;5.15;;;;;;;;;;4389888;32;20093;-65
2022/07/27 19:17:42;;;;;;;8.15;5.53;;;;;;;;;;4389926;32;20505;-65
2022/07/27 19:20:09;;;;;;;7.95;5.82;;;;;;;;;;4389753;32;20531;-66
2022/07/27 19:22:40;;;;;;;8.55;6.10;;;;;;;;;;4377225;32;20066;-65
2022/07/27 19:25:07;;;;;;;8.68;5.65;;;;;;;;;;4377746;32;20090;-65
2022/07/27 19:27:34;;;;;;;6.87;5.40;;;;;;;;;;4390061;32;20127;-65
2022/07/27 19:30:01;;;;;;;7.85;5.18;;;;;;;;;;4390527;32;20080;-65
2022/07/27 19:32:27;;;;;;;7.37;5.55;;;;;;;;;;4377136;32;20088;-65
2022/07/27 19:34:55;;;;;;;7.95;5.50;;;;;;;;;;4377531;32;20534;-65
2022/07/27 19:37:21;;;;;;;8.73;5.90;;;;;;;;;;4377352;32;20085;-65
2022/07/27 19:39:48;;;;;;;7.68;4.95;;;;;;;;;;4377268;32;20088;-65
2022/07/27 19:42:15;;;;;;;6.15;4.68;;;;;;;;;;4377210;32;20166;-65
2022/07/27 19:56:25;;;;;;;7.50;5.30;;;;;;;;;;4394152;32;20167;-65
